sensor_id;sensor_type;location;lat;lon;timestamp;P1;durP1;ratioP1;P2;durP2;ratioP2
72711;SDS011;60828;40.292;17.998;2022-10-16T00:01:11;22.27;;;13.90;;
72711;SDS011;60828;40.292;17.998;2022-10-16T00:03:40;23.52;;;13.85;;
72711;SDS011;60828;40.292;17.998;2022-10-16T00:06:08;27.63;;;17.30;;
72711;SDS011;60828;40.292;17.998;2022-10-16T00:08:38;28.38;;;17.65;;
72711;SDS011;60828;40.292;17.998;2022-10-16T00:11:06;27.98;;;15.60;;
72711;SDS011;60828;40.292;17.998;2022-10-16T00:13:35;29.43;;;17.00;;
72711;SDS011;60828;40.292;17.998;2022-10-16T00:16:06;27.17;;;17.05;;
72711;SDS011;60828;40.292;17.998;2022-10-16T00:18:33;28.30;;;16.63;;
72711;SDS011;60828;40.292;17.998;2022-10-16T00:21:02;29.70;;;17.33;;
72711;SDS011;60828;40.292;17.998;2022-10-16T00:23:30;31.73;;;18.25;;
72711;SDS011;60828;40.292;17.998;2022-10-16T00:26:01;28.88;;;16.90;;
72711;SDS011;60828;40.292;17.998;2022-10-16T00:28:31;28.67;;;17.25;;
72711;SDS011;60828;40.292;17.998;2022-10-16T00:30:57;29.45;;;16.52;;
72711;SDS011;60828;40.292;17.998;2022-10-16T00:33:23;32.35;;;17.42;;
72711;SDS011;60828;40.292;17.998;2022-10-16T00:35:52;31.30;;;18.48;;
72711;SDS011;60828;40.292;17.998;2022-10-16T00:38:18;33.85;;;18.77;;
72711;SDS011;60828;40.292;17.998;2022-10-16T00:40:53;32.70;;;17.80;;
72711;SDS011;60828;40.292;17.998;2022-10-16T00:43:36;33.40;;;17.70;;
72711;SDS011;60828;40.292;17.998;2022-10-16T00:46:11;31.13;;;17.90;;
72711;SDS011;60828;40.292;17.998;2022-10-16T00:48:42;32.78;;;18.48;;
72711;SDS011;60828;40.292;17.998;2022-10-16T00:51:36;32.00;;;18.50;;
72711;SDS011;60828;40.292;17.998;2022-10-16T00:54:14;33.40;;;19.27;;
72711;SDS011;60828;40.292;17.998;2022-10-16T00:56:43;34.35;;;18.10;;
72711;SDS011;60828;40.292;17.998;2022-10-16T00:59:16;32.58;;;18.27;;
72711;SDS011;60828;40.292;17.998;2022-10-16T01:02:19;32.88;;;18.60;;
72711;SDS011;60828;40.292;17.998;2022-10-16T01:04:57;36.13;;;19.40;;
72711;SDS011;60828;40.292;17.998;2022-10-16T01:13:21;36.30;;;19.88;;
72711;SDS011;60828;40.292;17.998;2022-10-16T01:21:07;40.72;;;21.30;;
72711;SDS011;60828;40.292;17.998;2022-10-16T01:29:50;39.60;;;21.77;;
72711;SDS011;60828;40.292;17.998;2022-10-16T01:40:27;38.67;;;20.35;;
72711;SDS011;60828;40.292;17.998;2022-10-16T01:43:19;38.50;;;20.80;;
72711;SDS011;60828;40.292;17.998;2022-10-16T01:45:55;37.95;;;20.90;;
72711;SDS011;60828;40.292;17.998;2022-10-16T01:48:21;37.13;;;20.33;;
72711;SDS011;60828;40.292;17.998;2022-10-16T01:51:13;38.80;;;20.92;;
72711;SDS011;60828;40.292;17.998;2022-10-16T01:53:52;40.33;;;21.35;;
72711;SDS011;60828;40.292;17.998;2022-10-16T01:59:46;41.97;;;22.33;;
72711;SDS011;60828;40.292;17.998;2022-10-16T02:02:17;43.35;;;23.27;;
72711;SDS011;60828;40.292;17.998;2022-10-16T02:05:05;41.80;;;22.80;;
72711;SDS011;60828;40.292;17.998;2022-10-16T02:08:20;43.20;;;23.52;;
72711;SDS011;60828;40.292;17.998;2022-10-16T02:10:54;48.05;;;24.58;;
72711;SDS011;60828;40.292;17.998;2022-10-16T02:13:31;48.03;;;24.58;;
72711;SDS011;60828;40.292;17.998;2022-10-16T02:15:57;43.17;;;23.30;;
72711;SDS011;60828;40.292;17.998;2022-10-16T02:18:23;44.23;;;22.83;;
72711;SDS011;60828;40.292;17.998;2022-10-16T02:23:29;44.33;;;23.20;;
72711;SDS011;60828;40.292;17.998;2022-10-16T02:29:26;50.47;;;25.65;;
72711;SDS011;60828;40.292;17.998;2022-10-16T02:31:54;46.25;;;24.92;;
72711;SDS011;60828;40.292;17.998;2022-10-16T02:34:23;46.93;;;25.20;;
72711;SDS011;60828;40.292;17.998;2022-10-16T02:36:51;47.08;;;25.17;;
72711;SDS011;60828;40.292;17.998;2022-10-16T02:39:18;47.08;;;25.20;;
72711;SDS011;60828;40.292;17.998;2022-10-16T02:41:45;47.72;;;25.70;;
72711;SDS011;60828;40.292;17.998;2022-10-16T02:44:11;47.93;;;25.37;;
72711;SDS011;60828;40.292;17.998;2022-10-16T02:46:36;51.63;;;25.52;;
72711;SDS011;60828;40.292;17.998;2022-10-16T02:49:02;48.77;;;26.47;;
72711;SDS011;60828;40.292;17.998;2022-10-16T02:51:28;50.30;;;25.63;;
72711;SDS011;60828;40.292;17.998;2022-10-16T02:53:55;52.42;;;25.75;;
72711;SDS011;60828;40.292;17.998;2022-10-16T02:56:21;52.70;;;26.37;;
72711;SDS011;60828;40.292;17.998;2022-10-16T02:58:46;50.87;;;26.87;;
72711;SDS011;60828;40.292;17.998;2022-10-16T03:01:12;51.63;;;26.87;;
72711;SDS011;60828;40.292;17.998;2022-10-16T03:03:39;54.08;;;26.98;;
72711;SDS011;60828;40.292;17.998;2022-10-16T03:06:04;52.10;;;26.47;;
72711;SDS011;60828;40.292;17.998;2022-10-16T03:08:30;50.20;;;26.20;;
72711;SDS011;60828;40.292;17.998;2022-10-16T03:10:56;57.08;;;27.08;;
72711;SDS011;60828;40.292;17.998;2022-10-16T03:13:22;59.15;;;28.50;;
72711;SDS011;60828;40.292;17.998;2022-10-16T03:15:47;59.97;;;29.13;;
72711;SDS011;60828;40.292;17.998;2022-10-16T03:18:16;69.63;;;29.70;;
72711;SDS011;60828;40.292;17.998;2022-10-16T03:20:44;66.30;;;31.00;;
72711;SDS011;60828;40.292;17.998;2022-10-16T03:23:10;61.60;;;29.70;;
72711;SDS011;60828;40.292;17.998;2022-10-16T03:25:45;59.88;;;29.13;;
72711;SDS011;60828;40.292;17.998;2022-10-16T03:28:11;65.95;;;31.77;;
72711;SDS011;60828;40.292;17.998;2022-10-16T03:30:46;65.23;;;30.77;;
72711;SDS011;60828;40.292;17.998;2022-10-16T03:33:12;62.75;;;30.95;;
72711;SDS011;60828;40.292;17.998;2022-10-16T03:35:55;62.22;;;30.98;;
72711;SDS011;60828;40.292;17.998;2022-10-16T03:39:17;70.15;;;32.72;;
72711;SDS011;60828;40.292;17.998;2022-10-16T03:41:45;72.50;;;32.95;;
72711;SDS011;60828;40.292;17.998;2022-10-16T03:44:16;67.35;;;32.10;;
72711;SDS011;60828;40.292;17.998;2022-10-16T03:47:03;70.13;;;32.55;;
72711;SDS011;60828;40.292;17.998;2022-10-16T03:50:01;67.75;;;31.85;;
72711;SDS011;60828;40.292;17.998;2022-10-16T03:52:28;68.60;;;31.50;;
72711;SDS011;60828;40.292;17.998;2022-10-16T03:54:55;66.33;;;31.83;;
72711;SDS011;60828;40.292;17.998;2022-10-16T03:57:34;67.22;;;32.03;;
72711;SDS011;60828;40.292;17.998;2022-10-16T04:00:35;68.15;;;33.03;;
72711;SDS011;60828;40.292;17.998;2022-10-16T04:06:39;69.28;;;32.28;;
72711;SDS011;60828;40.292;17.998;2022-10-16T04:09:13;71.50;;;32.80;;
72711;SDS011;60828;40.292;17.998;2022-10-16T04:11:42;69.88;;;33.22;;
72711;SDS011;60828;40.292;17.998;2022-10-16T04:14:28;66.75;;;32.08;;
72711;SDS011;60828;40.292;17.998;2022-10-16T04:16:53;62.10;;;31.05;;
72711;SDS011;60828;40.292;17.998;2022-10-16T04:19:19;63.17;;;30.83;;
72711;SDS011;60828;40.292;17.998;2022-10-16T04:21:44;65.93;;;31.90;;
72711;SDS011;60828;40.292;17.998;2022-10-16T04:24:12;65.67;;;31.03;;
72711;SDS011;60828;40.292;17.998;2022-10-16T04:26:38;63.30;;;30.27;;
72711;SDS011;60828;40.292;17.998;2022-10-16T04:29:03;66.17;;;31.03;;
72711;SDS011;60828;40.292;17.998;2022-10-16T04:31:53;63.65;;;31.00;;
72711;SDS011;60828;40.292;17.998;2022-10-16T04:34:19;67.50;;;31.13;;
72711;SDS011;60828;40.292;17.998;2022-10-16T04:36:47;64.07;;;30.83;;
72711;SDS011;60828;40.292;17.998;2022-10-16T04:39:19;67.70;;;31.55;;
72711;SDS011;60828;40.292;17.998;2022-10-16T04:41:44;66.28;;;32.05;;
72711;SDS011;60828;40.292;17.998;2022-10-16T04:44:18;66.10;;;31.70;;
72711;SDS011;60828;40.292;17.998;2022-10-16T04:46:46;64.65;;;31.85;;
72711;SDS011;60828;40.292;17.998;2022-10-16T04:49:12;66.67;;;32.60;;
72711;SDS011;60828;40.292;17.998;2022-10-16T04:51:38;68.63;;;31.50;;
72711;SDS011;60828;40.292;17.998;2022-10-16T04:54:16;63.53;;;30.35;;
72711;SDS011;60828;40.292;17.998;2022-10-16T04:56:41;65.40;;;30.57;;
72711;SDS011;60828;40.292;17.998;2022-10-16T04:59:16;68.32;;;32.05;;
72711;SDS011;60828;40.292;17.998;2022-10-16T05:01:45;67.63;;;31.10;;
72711;SDS011;60828;40.292;17.998;2022-10-16T05:04:19;64.47;;;31.50;;
72711;SDS011;60828;40.292;17.998;2022-10-16T05:06:45;66.35;;;31.63;;
72711;SDS011;60828;40.292;17.998;2022-10-16T05:09:14;63.35;;;30.55;;
72711;SDS011;60828;40.292;17.998;2022-10-16T05:12:10;64.55;;;30.75;;
72711;SDS011;60828;40.292;17.998;2022-10-16T05:14:41;59.85;;;29.40;;
72711;SDS011;60828;40.292;17.998;2022-10-16T05:17:07;61.00;;;29.15;;
72711;SDS011;60828;40.292;17.998;2022-10-16T05:19:46;58.42;;;29.02;;
72711;SDS011;60828;40.292;17.998;2022-10-16T05:22:50;57.17;;;29.05;;
72711;SDS011;60828;40.292;17.998;2022-10-16T05:28:31;56.53;;;28.88;;
72711;SDS011;60828;40.292;17.998;2022-10-16T05:31:04;62.33;;;29.40;;
72711;SDS011;60828;40.292;17.998;2022-10-16T05:34:08;59.85;;;29.77;;
72711;SDS011;60828;40.292;17.998;2022-10-16T05:43:08;57.03;;;29.73;;
72711;SDS011;60828;40.292;17.998;2022-10-16T05:45:34;56.80;;;29.43;;
72711;SDS011;60828;40.292;17.998;2022-10-16T05:48:00;58.97;;;29.33;;
72711;SDS011;60828;40.292;17.998;2022-10-16T05:50:26;54.70;;;27.98;;
72711;SDS011;60828;40.292;17.998;2022-10-16T05:52:52;55.50;;;28.35;;
72711;SDS011;60828;40.292;17.998;2022-10-16T05:55:18;56.28;;;29.40;;
72711;SDS011;60828;40.292;17.998;2022-10-16T05:57:44;57.27;;;29.17;;
72711;SDS011;60828;40.292;17.998;2022-10-16T06:00:09;55.10;;;29.40;;
72711;SDS011;60828;40.292;17.998;2022-10-16T06:02:35;56.80;;;29.48;;
72711;SDS011;60828;40.292;17.998;2022-10-16T06:05:01;52.47;;;28.27;;
72711;SDS011;60828;40.292;17.998;2022-10-16T06:07:26;55.23;;;29.40;;
72711;SDS011;60828;40.292;17.998;2022-10-16T06:09:52;55.90;;;29.40;;
72711;SDS011;60828;40.292;17.998;2022-10-16T06:12:18;55.00;;;30.27;;
72711;SDS011;60828;40.292;17.998;2022-10-16T06:14:45;53.45;;;29.58;;
72711;SDS011;60828;40.292;17.998;2022-10-16T06:17:12;55.58;;;30.05;;
72711;SDS011;60828;40.292;17.998;2022-10-16T06:22:04;49.00;;;24.38;;
72711;SDS011;60828;40.292;17.998;2022-10-16T06:24:30;47.40;;;24.03;;
72711;SDS011;60828;40.292;17.998;2022-10-16T06:26:56;46.33;;;24.13;;
72711;SDS011;60828;40.292;17.998;2022-10-16T06:29:21;44.03;;;25.60;;
72711;SDS011;60828;40.292;17.998;2022-10-16T06:31:46;41.83;;;24.60;;
72711;SDS011;60828;40.292;17.998;2022-10-16T06:34:15;39.20;;;22.85;;
72711;SDS011;60828;40.292;17.998;2022-10-16T06:36:41;37.23;;;24.10;;
72711;SDS011;60828;40.292;17.998;2022-10-16T06:39:19;33.83;;;21.60;;
72711;SDS011;60828;40.292;17.998;2022-10-16T06:41:45;36.33;;;21.55;;
72711;SDS011;60828;40.292;17.998;2022-10-16T06:44:11;35.47;;;23.50;;
72711;SDS011;60828;40.292;17.998;2022-10-16T06:58:54;31.10;;;19.77;;
72711;SDS011;60828;40.292;17.998;2022-10-16T07:01:21;32.17;;;20.43;;
72711;SDS011;60828;40.292;17.998;2022-10-16T07:03:49;32.95;;;20.65;;
72711;SDS011;60828;40.292;17.998;2022-10-16T07:06:16;34.30;;;20.58;;
72711;SDS011;60828;40.292;17.998;2022-10-16T07:08:54;33.23;;;20.87;;
72711;SDS011;60828;40.292;17.998;2022-10-16T07:11:21;35.70;;;20.95;;
72711;SDS011;60828;40.292;17.998;2022-10-16T07:14:02;33.78;;;20.60;;
72711;SDS011;60828;40.292;17.998;2022-10-16T07:16:40;34.65;;;22.00;;
72711;SDS011;60828;40.292;17.998;2022-10-16T07:19:06;30.60;;;18.97;;
72711;SDS011;60828;40.292;17.998;2022-10-16T07:21:32;29.80;;;20.10;;
72711;SDS011;60828;40.292;17.998;2022-10-16T07:24:02;31.63;;;19.55;;
72711;SDS011;60828;40.292;17.998;2022-10-16T07:26:31;29.00;;;18.70;;
72711;SDS011;60828;40.292;17.998;2022-10-16T07:29:11;29.73;;;19.40;;
72711;SDS011;60828;40.292;17.998;2022-10-16T07:31:39;31.85;;;19.73;;
72711;SDS011;60828;40.292;17.998;2022-10-16T07:34:09;32.38;;;19.65;;
72711;SDS011;60828;40.292;17.998;2022-10-16T07:36:38;27.70;;;18.63;;
72711;SDS011;60828;40.292;17.998;2022-10-16T07:39:04;31.40;;;21.03;;
72711;SDS011;60828;40.292;17.998;2022-10-16T07:41:29;28.73;;;19.35;;
72711;SDS011;60828;40.292;17.998;2022-10-16T07:43:57;27.87;;;19.13;;
72711;SDS011;60828;40.292;17.998;2022-10-16T07:46:25;38.42;;;20.90;;
72711;SDS011;60828;40.292;17.998;2022-10-16T07:48:51;28.83;;;19.77;;
72711;SDS011;60828;40.292;17.998;2022-10-16T07:51:19;30.30;;;22.35;;
72711;SDS011;60828;40.292;17.998;2022-10-16T07:53:49;26.85;;;18.88;;
72711;SDS011;60828;40.292;17.998;2022-10-16T07:56:16;34.87;;;27.87;;
72711;SDS011;60828;40.292;17.998;2022-10-16T08:10:06;30.23;;;20.13;;
72711;SDS011;60828;40.292;17.998;2022-10-16T08:12:32;27.88;;;21.02;;
72711;SDS011;60828;40.292;17.998;2022-10-16T08:14:57;27.73;;;21.77;;
72711;SDS011;60828;40.292;17.998;2022-10-16T08:47:16;23.23;;;16.95;;
72711;SDS011;60828;40.292;17.998;2022-10-16T08:49:43;25.75;;;16.60;;
72711;SDS011;60828;40.292;17.998;2022-10-16T08:52:25;26.23;;;20.48;;
72711;SDS011;60828;40.292;17.998;2022-10-16T08:54:56;24.50;;;17.60;;
72711;SDS011;60828;40.292;17.998;2022-10-16T08:57:22;23.42;;;15.57;;
72711;SDS011;60828;40.292;17.998;2022-10-16T08:59:49;23.55;;;18.23;;
72711;SDS011;60828;40.292;17.998;2022-10-16T09:02:59;22.48;;;16.95;;
72711;SDS011;60828;40.292;17.998;2022-10-16T09:10:38;22.85;;;15.57;;
72711;SDS011;60828;40.292;17.998;2022-10-16T09:23:25;26.58;;;19.80;;
72711;SDS011;60828;40.292;17.998;2022-10-16T09:28:18;24.63;;;18.27;;
72711;SDS011;60828;40.292;17.998;2022-10-16T09:30:44;24.30;;;17.63;;
72711;SDS011;60828;40.292;17.998;2022-10-16T09:33:10;22.77;;;16.45;;
72711;SDS011;60828;40.292;17.998;2022-10-16T09:48:51;25.20;;;16.60;;
72711;SDS011;60828;40.292;17.998;2022-10-16T09:51:27;28.55;;;17.83;;
72711;SDS011;60828;40.292;17.998;2022-10-16T09:53:57;23.23;;;16.00;;
72711;SDS011;60828;40.292;17.998;2022-10-16T09:56:29;24.58;;;15.98;;
72711;SDS011;60828;40.292;17.998;2022-10-16T09:58:58;24.52;;;15.63;;
72711;SDS011;60828;40.292;17.998;2022-10-16T10:01:38;28.83;;;16.55;;
72711;SDS011;60828;40.292;17.998;2022-10-16T10:04:12;26.45;;;16.10;;
72711;SDS011;60828;40.292;17.998;2022-10-16T10:06:44;25.53;;;16.77;;
72711;SDS011;60828;40.292;17.998;2022-10-16T10:09:22;24.17;;;16.17;;
72711;SDS011;60828;40.292;17.998;2022-10-16T10:30:29;28.05;;;15.57;;
72711;SDS011;60828;40.292;17.998;2022-10-16T10:38:58;34.65;;;19.63;;
72711;SDS011;60828;40.292;17.998;2022-10-16T10:52:34;25.27;;;15.93;;
72711;SDS011;60828;40.292;17.998;2022-10-16T10:55:54;22.83;;;15.57;;
72711;SDS011;60828;40.292;17.998;2022-10-16T11:00:53;27.17;;;16.25;;
72711;SDS011;60828;40.292;17.998;2022-10-16T11:03:40;21.95;;;13.82;;
72711;SDS011;60828;40.292;17.998;2022-10-16T11:09:17;23.57;;;14.23;;
72711;SDS011;60828;40.292;17.998;2022-10-16T11:11:50;22.23;;;14.65;;
72711;SDS011;60828;40.292;17.998;2022-10-16T11:19:26;23.57;;;13.83;;
72711;SDS011;60828;40.292;17.998;2022-10-16T11:30:19;20.13;;;11.98;;
72711;SDS011;60828;40.292;17.998;2022-10-16T11:33:00;20.92;;;13.35;;
72711;SDS011;60828;40.292;17.998;2022-10-16T11:35:42;21.67;;;13.15;;
72711;SDS011;60828;40.292;17.998;2022-10-16T11:40:58;25.33;;;14.23;;
72711;SDS011;60828;40.292;17.998;2022-10-16T11:43:38;22.00;;;14.07;;
72711;SDS011;60828;40.292;17.998;2022-10-16T11:46:09;20.60;;;12.25;;
72711;SDS011;60828;40.292;17.998;2022-10-16T11:48:43;20.45;;;13.15;;
72711;SDS011;60828;40.292;17.998;2022-10-16T11:51:17;22.08;;;14.00;;
72711;SDS011;60828;40.292;17.998;2022-10-16T11:54:02;21.43;;;13.13;;
72711;SDS011;60828;40.292;17.998;2022-10-16T11:56:36;22.38;;;13.70;;
72711;SDS011;60828;40.292;17.998;2022-10-16T11:59:12;19.85;;;12.98;;
72711;SDS011;60828;40.292;17.998;2022-10-16T12:04:45;21.45;;;12.70;;
72711;SDS011;60828;40.292;17.998;2022-10-16T12:07:19;25.47;;;15.43;;
72711;SDS011;60828;40.292;17.998;2022-10-16T12:09:49;23.90;;;13.30;;
72711;SDS011;60828;40.292;17.998;2022-10-16T12:15:03;23.85;;;13.32;;
72711;SDS011;60828;40.292;17.998;2022-10-16T12:17:43;23.90;;;13.23;;
72711;SDS011;60828;40.292;17.998;2022-10-16T12:22:37;21.10;;;12.43;;
72711;SDS011;60828;40.292;17.998;2022-10-16T12:30:30;19.98;;;12.35;;
72711;SDS011;60828;40.292;17.998;2022-10-16T12:33:00;20.63;;;12.48;;
72711;SDS011;60828;40.292;17.998;2022-10-16T12:35:42;17.48;;;10.75;;
72711;SDS011;60828;40.292;17.998;2022-10-16T12:40:41;19.47;;;12.53;;
72711;SDS011;60828;40.292;17.998;2022-10-16T12:43:35;22.77;;;12.27;;
72711;SDS011;60828;40.292;17.998;2022-10-16T12:48:36;20.92;;;12.52;;
72711;SDS011;60828;40.292;17.998;2022-10-16T12:51:12;23.42;;;12.77;;
72711;SDS011;60828;40.292;17.998;2022-10-16T12:53:44;20.20;;;11.77;;
72711;SDS011;60828;40.292;17.998;2022-10-16T12:56:19;20.73;;;11.32;;
72711;SDS011;60828;40.292;17.998;2022-10-16T13:09:51;18.05;;;11.18;;
72711;SDS011;60828;40.292;17.998;2022-10-16T13:17:46;17.85;;;11.75;;
72711;SDS011;60828;40.292;17.998;2022-10-16T13:23:29;18.65;;;11.55;;
72711;SDS011;60828;40.292;17.998;2022-10-16T13:29:09;18.37;;;11.53;;
72711;SDS011;60828;40.292;17.998;2022-10-16T13:31:36;17.17;;;10.75;;
72711;SDS011;60828;40.292;17.998;2022-10-16T13:34:03;16.98;;;10.32;;
72711;SDS011;60828;40.292;17.998;2022-10-16T13:36:42;19.35;;;11.40;;
72711;SDS011;60828;40.292;17.998;2022-10-16T13:39:14;16.73;;;10.27;;
72711;SDS011;60828;40.292;17.998;2022-10-16T13:42:03;18.00;;;10.57;;
72711;SDS011;60828;40.292;17.998;2022-10-16T13:44:31;17.02;;;11.27;;
72711;SDS011;60828;40.292;17.998;2022-10-16T13:47:17;20.17;;;11.45;;
72711;SDS011;60828;40.292;17.998;2022-10-16T13:49:45;19.00;;;11.30;;
72711;SDS011;60828;40.292;17.998;2022-10-16T13:52:20;16.37;;;10.77;;
72711;SDS011;60828;40.292;17.998;2022-10-16T13:54:46;16.48;;;10.38;;
72711;SDS011;60828;40.292;17.998;2022-10-16T13:57:15;18.08;;;10.55;;
72711;SDS011;60828;40.292;17.998;2022-10-16T13:59:42;15.55;;;9.45;;
72711;SDS011;60828;40.292;17.998;2022-10-16T14:02:13;17.63;;;10.65;;
72711;SDS011;60828;40.292;17.998;2022-10-16T14:04:44;19.27;;;11.00;;
72711;SDS011;60828;40.292;17.998;2022-10-16T14:07:13;17.20;;;10.50;;
72711;SDS011;60828;40.292;17.998;2022-10-16T14:09:47;20.33;;;12.02;;
72711;SDS011;60828;40.292;17.998;2022-10-16T14:12:14;19.88;;;11.73;;
72711;SDS011;60828;40.292;17.998;2022-10-16T14:14:43;22.27;;;11.97;;
72711;SDS011;60828;40.292;17.998;2022-10-16T14:17:30;20.98;;;11.80;;
72711;SDS011;60828;40.292;17.998;2022-10-16T14:19:58;21.55;;;12.43;;
72711;SDS011;60828;40.292;17.998;2022-10-16T14:24:56;18.58;;;11.80;;
72711;SDS011;60828;40.292;17.998;2022-10-16T14:27:24;19.77;;;13.13;;
72711;SDS011;60828;40.292;17.998;2022-10-16T14:32:54;18.83;;;11.85;;
72711;SDS011;60828;40.292;17.998;2022-10-16T14:35:34;20.23;;;10.93;;
72711;SDS011;60828;40.292;17.998;2022-10-16T14:38:02;18.13;;;10.25;;
72711;SDS011;60828;40.292;17.998;2022-10-16T14:40:33;18.10;;;11.85;;
72711;SDS011;60828;40.292;17.998;2022-10-16T14:43:01;19.33;;;11.68;;
72711;SDS011;60828;40.292;17.998;2022-10-16T14:45:29;23.73;;;12.82;;
72711;SDS011;60828;40.292;17.998;2022-10-16T14:47:57;21.40;;;11.17;;
72711;SDS011;60828;40.292;17.998;2022-10-16T14:50:27;17.25;;;11.23;;
72711;SDS011;60828;40.292;17.998;2022-10-16T14:52:53;18.77;;;11.35;;
72711;SDS011;60828;40.292;17.998;2022-10-16T14:55:20;19.33;;;11.73;;
72711;SDS011;60828;40.292;17.998;2022-10-16T14:57:46;20.40;;;11.15;;
72711;SDS011;60828;40.292;17.998;2022-10-16T15:00:17;18.80;;;11.97;;
72711;SDS011;60828;40.292;17.998;2022-10-16T15:02:45;22.75;;;13.02;;
72711;SDS011;60828;40.292;17.998;2022-10-16T15:07:48;20.83;;;12.57;;
72711;SDS011;60828;40.292;17.998;2022-10-16T15:10:15;20.97;;;12.53;;
72711;SDS011;60828;40.292;17.998;2022-10-16T15:12:42;20.60;;;12.67;;
72711;SDS011;60828;40.292;17.998;2022-10-16T15:15:15;23.00;;;13.40;;
72711;SDS011;60828;40.292;17.998;2022-10-16T15:17:49;23.48;;;13.45;;
72711;SDS011;60828;40.292;17.998;2022-10-16T15:20:17;23.58;;;13.20;;
72711;SDS011;60828;40.292;17.998;2022-10-16T15:22:43;26.85;;;13.10;;
72711;SDS011;60828;40.292;17.998;2022-10-16T15:25:29;22.40;;;13.17;;
72711;SDS011;60828;40.292;17.998;2022-10-16T15:27:59;23.92;;;13.50;;
72711;SDS011;60828;40.292;17.998;2022-10-16T15:30:26;23.45;;;13.45;;
72711;SDS011;60828;40.292;17.998;2022-10-16T15:32:52;24.10;;;14.23;;
72711;SDS011;60828;40.292;17.998;2022-10-16T15:35:17;25.13;;;14.30;;
72711;SDS011;60828;40.292;17.998;2022-10-16T15:37:43;24.80;;;14.27;;
72711;SDS011;60828;40.292;17.998;2022-10-16T15:40:09;25.02;;;14.25;;
72711;SDS011;60828;40.292;17.998;2022-10-16T15:42:35;28.83;;;14.13;;
72711;SDS011;60828;40.292;17.998;2022-10-16T15:45:01;25.38;;;14.73;;
72711;SDS011;60828;40.292;17.998;2022-10-16T15:47:28;26.83;;;15.30;;
72711;SDS011;60828;40.292;17.998;2022-10-16T15:49:53;26.30;;;15.27;;
72711;SDS011;60828;40.292;17.998;2022-10-16T15:52:19;25.40;;;14.63;;
72711;SDS011;60828;40.292;17.998;2022-10-16T15:54:44;27.67;;;14.83;;
72711;SDS011;60828;40.292;17.998;2022-10-16T15:57:10;28.58;;;16.02;;
72711;SDS011;60828;40.292;17.998;2022-10-16T15:59:36;27.40;;;15.53;;
72711;SDS011;60828;40.292;17.998;2022-10-16T16:02:01;27.38;;;14.85;;
72711;SDS011;60828;40.292;17.998;2022-10-16T16:04:29;25.23;;;14.57;;
72711;SDS011;60828;40.292;17.998;2022-10-16T16:06:55;27.55;;;15.93;;
72711;SDS011;60828;40.292;17.998;2022-10-16T16:09:21;29.27;;;15.40;;
72711;SDS011;60828;40.292;17.998;2022-10-16T16:11:47;29.88;;;15.80;;
72711;SDS011;60828;40.292;17.998;2022-10-16T16:14:13;31.47;;;15.83;;
72711;SDS011;60828;40.292;17.998;2022-10-16T16:16:38;27.98;;;16.05;;
72711;SDS011;60828;40.292;17.998;2022-10-16T16:19:04;29.87;;;16.00;;
72711;SDS011;60828;40.292;17.998;2022-10-16T16:21:31;29.42;;;17.23;;
72711;SDS011;60828;40.292;17.998;2022-10-16T16:23:57;28.27;;;16.17;;
72711;SDS011;60828;40.292;17.998;2022-10-16T16:26:26;28.00;;;16.33;;
72711;SDS011;60828;40.292;17.998;2022-10-16T16:28:57;28.67;;;16.63;;
72711;SDS011;60828;40.292;17.998;2022-10-16T16:31:27;29.03;;;17.00;;
72711;SDS011;60828;40.292;17.998;2022-10-16T16:33:53;27.50;;;16.85;;
72711;SDS011;60828;40.292;17.998;2022-10-16T16:36:19;31.05;;;16.17;;
72711;SDS011;60828;40.292;17.998;2022-10-16T16:38:45;33.17;;;17.43;;
72711;SDS011;60828;40.292;17.998;2022-10-16T16:43:38;31.90;;;17.33;;
72711;SDS011;60828;40.292;17.998;2022-10-16T16:46:04;33.30;;;17.58;;
72711;SDS011;60828;40.292;17.998;2022-10-16T16:48:30;33.73;;;17.70;;
72711;SDS011;60828;40.292;17.998;2022-10-16T16:51:02;33.85;;;17.92;;
72711;SDS011;60828;40.292;17.998;2022-10-16T16:53:28;35.53;;;19.02;;
72711;SDS011;60828;40.292;17.998;2022-10-16T16:55:54;32.83;;;19.17;;
72711;SDS011;60828;40.292;17.998;2022-10-16T16:58:19;36.03;;;18.90;;
72711;SDS011;60828;40.292;17.998;2022-10-16T17:00:45;35.63;;;18.90;;
72711;SDS011;60828;40.292;17.998;2022-10-16T17:03:11;33.20;;;18.63;;
72711;SDS011;60828;40.292;17.998;2022-10-16T17:05:37;36.47;;;20.60;;
72711;SDS011;60828;40.292;17.998;2022-10-16T17:08:02;34.63;;;18.70;;
72711;SDS011;60828;40.292;17.998;2022-10-16T17:10:31;33.67;;;19.02;;
72711;SDS011;60828;40.292;17.998;2022-10-16T17:12:57;35.33;;;19.33;;
72711;SDS011;60828;40.292;17.998;2022-10-16T17:15:22;35.80;;;18.57;;
72711;SDS011;60828;40.292;17.998;2022-10-16T17:17:48;36.80;;;20.03;;
72711;SDS011;60828;40.292;17.998;2022-10-16T17:20:14;33.75;;;18.27;;
72711;SDS011;60828;40.292;17.998;2022-10-16T17:22:39;32.00;;;17.80;;
72711;SDS011;60828;40.292;17.998;2022-10-16T17:25:05;35.88;;;18.40;;
72711;SDS011;60828;40.292;17.998;2022-10-16T17:27:32;34.67;;;18.08;;
72711;SDS011;60828;40.292;17.998;2022-10-16T17:29:58;31.65;;;18.30;;
72711;SDS011;60828;40.292;17.998;2022-10-16T17:32:24;35.20;;;18.50;;
72711;SDS011;60828;40.292;17.998;2022-10-16T17:34:49;40.47;;;19.43;;
72711;SDS011;60828;40.292;17.998;2022-10-16T17:37:15;35.20;;;18.83;;
72711;SDS011;60828;40.292;17.998;2022-10-16T17:39:40;33.27;;;18.27;;
72711;SDS011;60828;40.292;17.998;2022-10-16T17:42:06;34.47;;;18.70;;
72711;SDS011;60828;40.292;17.998;2022-10-16T17:44:32;37.30;;;18.43;;
72711;SDS011;60828;40.292;17.998;2022-10-16T17:46:57;35.65;;;18.98;;
72711;SDS011;60828;40.292;17.998;2022-10-16T17:49:23;33.83;;;17.83;;
72711;SDS011;60828;40.292;17.998;2022-10-16T17:51:49;37.13;;;18.80;;
72711;SDS011;60828;40.292;17.998;2022-10-16T17:54:16;33.95;;;18.50;;
72711;SDS011;60828;40.292;17.998;2022-10-16T17:56:41;34.17;;;17.90;;
72711;SDS011;60828;40.292;17.998;2022-10-16T17:59:08;36.83;;;19.08;;
72711;SDS011;60828;40.292;17.998;2022-10-16T18:01:36;45.28;;;21.98;;
72711;SDS011;60828;40.292;17.998;2022-10-16T18:04:05;41.35;;;21.92;;
72711;SDS011;60828;40.292;17.998;2022-10-16T18:06:34;39.30;;;19.47;;
72711;SDS011;60828;40.292;17.998;2022-10-16T18:09:00;45.28;;;21.45;;
72711;SDS011;60828;40.292;17.998;2022-10-16T18:11:27;43.20;;;22.05;;
72711;SDS011;60828;40.292;17.998;2022-10-16T18:13:54;44.85;;;21.85;;
72711;SDS011;60828;40.292;17.998;2022-10-16T18:16:22;44.97;;;21.80;;
72711;SDS011;60828;40.292;17.998;2022-10-16T18:18:48;40.60;;;21.07;;
72711;SDS011;60828;40.292;17.998;2022-10-16T18:21:15;41.10;;;21.00;;
72711;SDS011;60828;40.292;17.998;2022-10-16T18:23:42;42.58;;;21.30;;
72711;SDS011;60828;40.292;17.998;2022-10-16T18:26:09;39.83;;;20.07;;
72711;SDS011;60828;40.292;17.998;2022-10-16T18:28:35;39.55;;;20.52;;
72711;SDS011;60828;40.292;17.998;2022-10-16T18:31:05;42.80;;;19.98;;
72711;SDS011;60828;40.292;17.998;2022-10-16T18:33:35;39.45;;;20.23;;